Airfield :
LOGIN :

Register | Disclaimer

   EN    FR    IT 

 










Legend :    VFR   Marginal VFR   IFR   Intensive IFR   Very Intensive IFR
Visi :
Ceiling :
>= 8 km
>= 3000ft
5 to 8 km
1000 to 3000 ft
1500m to 5 km
500 to 1000 ft
800 to 1500m
200 to 500 ft
< 800m
< 200 ft
Symbols :   Thunderstorms  Fog  Heavy snow  Heavy precipitations  Wind > 20 kt
SIGMETs :     Misc.  Thunderstorms  Icing  Turbulence  Mountain Waves  Volcanic Ashes






- Airport Elevation : 132 ft


EGXE - RAF Leeming

CURRENT METAR :
  • 250420Z AUTO 16004KT 5000 BR NCD 10/09 Q1019

EXPIRED METARs :
  • 250350Z AUTO 14003KT 5000 BR FEW046/// 11/10 Q1019
  • 250320Z AUTO 12002KT 6000 BR OVC045/// 11/10 Q1019
  • 250250Z AUTO 17003KT 6000 BR FEW015/// OVC045/// 12/10 Q1019
  • 250220Z AUTO 15004KT 7000 BR OVC044/// 12/11 Q1019
  • 250150Z AUTO 16003KT 7000 BR OVC044/// 12/11 Q1019
  • 250120Z AUTO 15004KT 8000 BR OVC042/// 12/11 Q1019
  • 250050Z AUTO 16003KT 9999 OVC042/// 12/10 Q1019
  • 250020Z AUTO 17005KT 9999 OVC043/// 12/10 Q1020
  • 242350Z AUTO 15004KT 9999 OVC044/// 12/10 Q1020

Expired Forecast.



MET'MAP, your aeronautical weather chart ! - Copyright ORBIFLY December 2007 - Disclaimer

ORBIFLY MET'MAP TEAM :

Programming & Development : Alexandra Zaïnal
Original concept : Baudouin d'Aumeries
Technical & hardware support : Manuel Goepfert
Assistance : Marc-Olivier Méhu




SOURCES & CREDITS :

   NOAA